Accueil
METAR-TAF:

METAR-TAF

Aéroports :

Aéroport international Angoulême-Cognac

Angoulême, France

latitude: 45-43-46N, longitude: 00-13-08E, altitude: 132 m

Observation

Le bulletin a été fait il y a 28 minutes, à 03:30 UTC
Température 15°C
Humidité 77%
Pression 1024 hPa

METAR: LFBU 060330Z AUTO /////KT //// R28///// // ////// 15/11 Q1024

Heure: 05:58 (03:58 UTC)

Prévision

Le bulletin a été fait il y a 10 heures et 58 minutes, à 17:00 UTC
Prévision valable du 05 à 18 UTC au 06 à 18 UTC
Vent 10 kt de nord/nord-est
Visibilité 10 km ou plus
pas de nuages en-dessous de 1500 mètres et pas de cumulonimbus.

TAF: LFBU 051700Z 0518/0618 03010KT CAVOK

Observations et prévisions météorologiques de plus de 4000 aéroports (messages METAR et TAF).

Les stations disponibles sont représentées par des disques jaunes et rouges sur la carte.

Passer la souris dessus pour voir le nom de la station.

Cliquer dessus pour voir les observations et prévisions météorologiques.

Pour changer de carte: cliquez sur les boutons verts avec une croix noire pour zoomer, sur le bouton vert avec un tiret pour effectuer un zoom arrière, ou sur les flèches vertes pour les cartes adjacentes.


METAR-TAF: